Time;durP1;ratioP1;P1;durP2;ratioP2;P2;SDS_P1;SDS_P2;PMS_P1;PMS_P2;Temp;Humidity;BMP_temperature;BMP_pressure;BME280_temperature;BME280_humidity;BME280_pressure;Samples;Min_cycle;Max_cycle;Signal;HPM_P1;HPM_P2
2021/03/07 00:01:48;;;;;;;5.55;3.40;;;1.30;65.40;;;;;;5036824;28;20091;-74
2021/03/07 00:04:15;;;;;;;5.75;3.50;;;1.20;65.10;;;;;;5036563;28;20034;-73
2021/03/07 00:06:40;;;;;;;5.85;3.65;;;1.10;65.90;;;;;;5035529;28;20032;-74
2021/03/07 00:09:06;;;;;;;4.55;3.25;;;1.00;66.90;;;;;;5036474;28;20325;-74
2021/03/07 00:11:32;;;;;;;4.53;2.90;;;1.00;67.90;;;;;;5035449;28;20095;-74
2021/03/07 00:13:57;;;;;;;4.50;2.78;;;0.90;66.30;;;;;;5036417;28;20299;-73
2021/03/07 00:16:23;;;;;;;5.57;3.08;;;0.80;67.10;;;;;;5037003;28;20025;-74
2021/03/07 00:18:49;;;;;;;3.72;2.65;;;0.80;65.00;;;;;;5036357;28;20037;-74
2021/03/07 00:21:15;;;;;;;5.97;3.63;;;0.80;66.40;;;;;;5036689;28;20049;-74
2021/03/07 00:23:41;;;;;;;6.43;3.47;;;0.80;68.40;;;;;;5040560;28;20044;-74
2021/03/07 00:26:07;;;;;;;4.30;2.97;;;0.70;67.90;;;;;;5040590;28;20021;-74
2021/03/07 00:28:33;;;;;;;3.88;3.05;;;0.70;65.60;;;;;;5040295;28;20057;-74
2021/03/07 00:30:59;;;;;;;4.07;2.75;;;0.60;65.30;;;;;;5039164;28;20103;-74
2021/03/07 00:33:25;;;;;;;5.85;2.90;;;0.60;65.30;;;;;;5040153;28;20039;-74
2021/03/07 00:35:51;;;;;;;4.68;2.75;;;0.70;65.40;;;;;;5040342;28;20019;-73
2021/03/07 00:38:17;;;;;;;3.65;2.70;;;0.70;66.20;;;;;;5040184;28;20417;-74
2021/03/07 00:40:42;;;;;;;4.97;2.90;;;0.50;67.00;;;;;;5039034;28;20032;-74
2021/03/07 00:43:08;;;;;;;5.22;3.10;;;0.40;66.50;;;;;;5039905;28;20029;-74
2021/03/07 00:45:34;;;;;;;4.00;2.67;;;0.50;65.90;;;;;;5040340;28;20022;-74
2021/03/07 00:48:00;;;;;;;4.43;2.70;;;0.50;65.30;;;;;;5040121;28;20389;-73
2021/03/07 00:50:26;;;;;;;5.32;2.80;;;0.50;67.00;;;;;;5039891;28;20092;-74
2021/03/07 00:52:56;;;;;;;4.60;2.85;;;0.50;66.80;;;;;;5039726;28;20108;-74
2021/03/07 00:55:23;;;;;;;5.40;3.42;;;0.50;66.90;;;;;;5039781;28;20028;-74
2021/03/07 00:57:49;;;;;;;6.68;3.85;;;0.40;69.40;;;;;;5038718;28;20021;-74
2021/03/07 01:00:19;;;;;;;6.38;3.13;;;0.30;69.00;;;;;;5039692;28;20083;-74
2021/03/07 01:02:45;;;;;;;4.38;2.83;;;0.20;69.60;;;;;;5039689;28;20113;-74
2021/03/07 01:05:11;;;;;;;6.10;3.30;;;0.10;69.50;;;;;;5038562;28;20431;-74
2021/03/07 01:07:37;;;;;;;4.80;3.10;;;0.00;69.20;;;;;;5039783;28;20026;-73
2021/03/07 01:10:15;;;;;;;4.35;2.80;;;0.10;68.70;;;;;;5038439;28;20033;-74
2021/03/07 01:12:41;;;;;;;5.93;3.42;;;0.10;68.10;;;;;;5039488;28;20021;-74
2021/03/07 01:15:08;;;;;;;4.38;3.20;;;0.10;68.80;;;;;;5038360;28;20386;-74
2021/03/07 01:17:34;;;;;;;5.90;3.50;;;0.10;69.10;;;;;;5039653;28;20025;-74
2021/03/07 01:19:59;;;;;;;4.18;2.92;;;0.00;70.00;;;;;;5039208;28;20049;-74
2021/03/07 01:22:25;;;;;;;4.43;3.40;;;0.00;69.70;;;;;;5038195;28;20422;-73
2021/03/07 01:24:51;;;;;;;7.03;3.40;;;0.00;70.10;;;;;;5039250;28;20030;-73
2021/03/07 01:27:16;;;;;;;4.75;3.22;;;0.00;69.00;;;;;;5038167;28;20026;-74
2021/03/07 01:29:42;;;;;;;5.47;3.38;;;0.00;69.10;;;;;;5039053;28;20033;-74
2021/03/07 01:32:07;;;;;;;6.32;3.38;;;0.00;69.30;;;;;;5038904;28;20034;-74
2021/03/07 01:34:33;;;;;;;7.55;3.50;;;0.00;67.80;;;;;;5037862;28;20045;-74
2021/03/07 01:36:59;;;;;;;4.70;3.55;;;0.10;70.30;;;;;;5038935;28;20116;-74
2021/03/07 01:39:24;;;;;;;5.03;3.65;;;0.00;70.40;;;;;;5038952;28;20100;-74
2021/03/07 01:41:50;;;;;;;5.38;3.00;;;0.10;69.40;;;;;;5039190;28;20036;-74
2021/03/07 01:44:15;;;;;;;6.13;3.50;;;0.10;68.30;;;;;;5039043;28;20100;-74
2021/03/07 01:46:41;;;;;;;4.68;3.20;;;0.10;69.90;;;;;;5039155;28;20076;-74
2021/03/07 01:49:07;;;;;;;6.10;3.80;;;0.00;69.20;;;;;;5038731;28;20083;-74
2021/03/07 01:51:33;;;;;;;6.50;3.65;;;0.00;69.40;;;;;;5037658;28;20064;-74
2021/03/07 01:53:58;;;;;;;5.53;3.33;;;0.00;69.80;;;;;;5038649;28;20112;-74
2021/03/07 01:56:26;;;;;;;5.30;3.47;;;0.00;69.60;;;;;;5038934;28;20057;-74
2021/03/07 01:58:55;;;;;;;4.35;3.13;;;0.00;71.40;;;;;;5038889;28;20029;-74
2021/03/07 02:01:21;;;;;;;5.97;3.60;;;0.00;69.90;;;;;;5038847;28;20033;-74
2021/03/07 02:03:52;;;;;;;5.05;3.63;;;-0.10;70.30;;;;;;5038699;28;20026;-74
2021/03/07 02:06:18;;;;;;;4.60;3.55;;;-0.10;70.50;;;;;;5038634;28;20094;-74
2021/03/07 02:08:44;;;;;;;7.22;3.88;;;-0.10;70.70;;;;;;5038339;28;20367;-73
2021/03/07 02:11:10;;;;;;;5.85;3.47;;;-0.10;71.30;;;;;;5038775;28;20033;-74
2021/03/07 02:13:39;;;;;;;7.63;3.63;;;-0.10;70.90;;;;;;5037425;28;20112;-74
2021/03/07 02:16:25;;;;;;;5.13;3.67;;;-0.10;71.20;;;;;;5038828;28;20126;-74
2021/03/07 02:18:53;;;;;;;5.15;3.50;;;-0.10;71.50;;;;;;5038314;28;20037;-74
2021/03/07 02:21:30;;;;;;;6.05;3.38;;;-0.10;71.90;;;;;;5038039;28;20076;-74
2021/03/07 02:24:11;;;;;;;5.60;3.83;;;-0.10;72.10;;;;;;5038372;28;20155;-73
2021/03/07 02:26:47;;;;;;;4.10;3.08;;;-0.20;71.40;;;;;;5038130;28;20029;-74
2021/03/07 02:29:15;;;;;;;7.00;4.03;;;-0.20;71.80;;;;;;5038558;28;20030;-74
2021/03/07 02:31:44;;;;;;;5.47;3.42;;;-0.20;72.00;;;;;;5037968;28;20417;-74
2021/03/07 02:34:35;;;;;;;5.07;3.80;;;-0.20;72.00;;;;;;5037811;28;20021;-74
2021/03/07 02:37:06;;;;;;;5.78;3.50;;;-0.30;71.20;;;;;;5038161;28;20048;-74
2021/03/07 02:39:34;;;;;;;4.95;3.67;;;-0.30;70.10;;;;;;5037874;28;20026;-74
2021/03/07 02:42:05;;;;;;;5.28;3.83;;;-0.20;69.80;;;;;;5036738;28;20393;-74
2021/03/07 02:44:34;;;;;;;3.78;3.08;;;-0.20;70.80;;;;;;5037319;28;20406;-74
2021/03/07 02:47:00;;;;;;;6.95;3.97;;;-0.30;70.60;;;;;;5037738;28;20052;-73
2021/03/07 02:49:27;;;;;;;5.88;4.15;;;-0.30;70.60;;;;;;5037592;28;20057;-74
2021/03/07 02:51:55;;;;;;;6.43;3.65;;;-0.20;70.10;;;;;;5037577;28;20112;-74
2021/03/07 02:54:22;;;;;;;4.65;3.25;;;-0.10;68.90;;;;;;5037793;28;20076;-74
2021/03/07 02:56:51;;;;;;;6.28;3.78;;;-0.10;69.40;;;;;;5037484;28;20029;-74
2021/03/07 02:59:20;;;;;;;6.07;3.42;;;-0.10;69.90;;;;;;5037761;28;20314;-74
2021/03/07 03:01:47;;;;;;;6.70;3.95;;;-0.20;69.30;;;;;;5037450;28;20083;-74
2021/03/07 03:04:14;;;;;;;5.50;3.33;;;-0.10;68.50;;;;;;5037330;28;20040;-74
2021/03/07 03:06:43;;;;;;;5.28;3.75;;;0.00;65.80;;;;;;5037435;28;20302;-73
2021/03/07 03:09:11;;;;;;;5.35;3.40;;;0.10;66.90;;;;;;5037172;28;20026;-74
2021/03/07 03:11:40;;;;;;;5.40;3.15;;;0.10;67.80;;;;;;5037441;28;20083;-74
2021/03/07 03:14:14;;;;;;;4.93;3.15;;;0.10;68.00;;;;;;5036057;28;20319;-74
2021/03/07 03:16:46;;;;;;;5.47;3.47;;;0.10;67.70;;;;;;5037769;28;20037;-74
2021/03/07 03:19:13;;;;;;;4.28;3.00;;;0.10;67.10;;;;;;5036985;28;20021;-74
2021/03/07 03:21:40;;;;;;;4.47;3.17;;;0.20;69.10;;;;;;5037119;28;20037;-74
2021/03/07 03:24:08;;;;;;;5.00;3.85;;;0.20;68.00;;;;;;5036975;28;20136;-74
2021/03/07 03:26:33;;;;;;;4.90;3.53;;;0.20;65.90;;;;;;5037203;28;20025;-74
2021/03/07 03:29:01;;;;;;;5.40;3.40;;;0.20;68.60;;;;;;5036875;28;20384;-74
2021/03/07 03:31:27;;;;;;;5.30;3.55;;;0.20;67.10;;;;;;5036948;28;20021;-73
2021/03/07 03:33:53;;;;;;;5.50;3.35;;;0.20;66.90;;;;;;5036826;28;20091;-74
2021/03/07 03:36:18;;;;;;;4.85;3.58;;;0.30;66.60;;;;;;5036914;28;20433;-74
2021/03/07 03:38:52;;;;;;;5.85;3.58;;;0.40;67.10;;;;;;5036822;28;20037;-74
2021/03/07 03:41:20;;;;;;;8.55;3.55;;;0.40;66.90;;;;;;5036846;28;20052;-73
2021/03/07 03:43:49;;;;;;;6.63;3.30;;;0.40;66.70;;;;;;5036754;28;20111;-74
2021/03/07 03:46:17;;;;;;;12.25;5.10;;;0.40;69.30;;;;;;5035973;28;20362;-74
2021/03/07 03:48:47;;;;;;;5.85;3.67;;;0.30;68.80;;;;;;5036619;28;20030;-74
2021/03/07 03:51:14;;;;;;;4.35;3.17;;;0.20;69.50;;;;;;5037003;28;20025;-74
2021/03/07 03:53:41;;;;;;;6.50;4.28;;;0.10;70.90;;;;;;5036519;28;20148;-74
2021/03/07 03:56:08;;;;;;;7.75;4.00;;;0.00;71.30;;;;;;5036445;28;20291;-74
2021/03/07 03:58:40;;;;;;;6.90;4.32;;;-0.10;72.20;;;;;;5036885;28;20032;-74
2021/03/07 04:01:07;;;;;;;5.53;3.92;;;-0.20;72.60;;;;;;5036648;28;20033;-74
2021/03/07 04:03:35;;;;;;;6.07;3.72;;;-0.20;71.60;;;;;;5035496;28;20112;-74
2021/03/07 04:06:01;;;;;;;4.90;3.70;;;-0.20;71.00;;;;;;5036564;28;20025;-74
2021/03/07 04:08:27;;;;;;;5.78;4.05;;;-0.20;72.80;;;;;;5035428;28;20022;-74
2021/03/07 04:10:56;;;;;;;5.72;4.40;;;-0.20;72.30;;;;;;5036543;28;20039;-74
2021/03/07 04:13:27;;;;;;;6.22;4.45;;;-0.20;71.50;;;;;;5036450;28;20473;-74
2021/03/07 04:15:56;;;;;;;6.32;4.20;;;-0.20;73.00;;;;;;5036951;28;20032;-74
2021/03/07 04:18:24;;;;;;;8.35;5.00;;;-0.30;73.80;;;;;;5036417;28;20021;-74
2021/03/07 04:20:51;;;;;;;7.38;4.70;;;-0.30;74.00;;;;;;5036411;28;20052;-74
2021/03/07 04:23:17;;;;;;;9.05;5.10;;;-0.30;73.50;;;;;;5036429;28;20056;-73
2021/03/07 04:25:43;;;;;;;7.13;4.85;;;-0.30;73.50;;;;;;5036471;28;20100;-74
2021/03/07 04:28:09;;;;;;;7.70;5.18;;;-0.30;73.50;;;;;;5036258;28;20104;-74
2021/03/07 04:30:36;;;;;;;8.55;5.63;;;-0.30;73.90;;;;;;5036341;28;20033;-74
2021/03/07 04:33:04;;;;;;;8.35;6.20;;;-0.30;75.10;;;;;;5036247;28;20414;-74
2021/03/07 04:35:31;;;;;;;8.75;6.40;;;-0.30;76.40;;;;;;5036262;28;20075;-74
2021/03/07 04:38:01;;;;;;;9.02;6.63;;;-0.30;76.50;;;;;;5036325;28;20071;-74
2021/03/07 04:40:27;;;;;;;8.65;6.72;;;-0.40;76.70;;;;;;5036590;28;20029;-74
2021/03/07 04:42:54;;;;;;;8.65;5.70;;;-0.40;77.80;;;;;;5036135;28;20028;-74
2021/03/07 04:45:20;;;;;;;9.10;5.50;;;-0.40;77.30;;;;;;5036172;28;20044;-74
2021/03/07 04:47:46;;;;;;;8.05;5.72;;;-0.40;75.70;;;;;;5036137;28;20029;-74
2021/03/07 04:50:13;;;;;;;8.45;6.65;;;-0.40;75.40;;;;;;5036368;28;20056;-73
2021/03/07 04:52:39;;;;;;;7.90;6.43;;;-0.30;76.90;;;;;;5036072;28;20021;-74
2021/03/07 04:55:07;;;;;;;10.90;6.78;;;-0.30;78.80;;;;;;5036192;28;20433;-74
2021/03/07 04:57:32;;;;;;;7.90;5.72;;;-0.30;78.80;;;;;;5036372;28;20025;-74
2021/03/07 04:59:58;;;;;;;8.05;4.72;;;-0.40;77.60;;;;;;5036033;28;20041;-74
2021/03/07 05:02:24;;;;;;;7.20;5.03;;;-0.40;76.10;;;;;;5036259;28;20101;-74
2021/03/07 05:04:50;;;;;;;8.18;5.22;;;-0.40;76.20;;;;;;5036264;28;20433;-74
2021/03/07 05:07:16;;;;;;;6.82;5.18;;;-0.40;76.40;;;;;;5036489;28;20025;-74
2021/03/07 05:09:42;;;;;;;6.88;4.95;;;-0.40;76.70;;;;;;5039492;28;20433;-74
2021/03/07 05:12:08;;;;;;;6.35;4.72;;;-0.40;77.60;;;;;;5039536;28;20104;-74
2021/03/07 05:14:33;;;;;;;7.68;5.35;;;-0.50;77.80;;;;;;5038335;28;20321;-74
2021/03/07 05:16:59;;;;;;;6.07;4.63;;;-0.50;77.50;;;;;;5039427;28;20318;-74
2021/03/07 05:19:25;;;;;;;7.35;4.70;;;-0.60;76.60;;;;;;5039244;28;20167;-74
2021/03/07 05:21:51;;;;;;;7.07;4.78;;;-0.60;75.60;;;;;;5039643;28;20143;-74
2021/03/07 05:24:17;;;;;;;9.23;4.75;;;-0.50;74.60;;;;;;5039243;28;20071;-74
2021/03/07 05:26:44;;;;;;;6.68;4.85;;;-0.60;74.80;;;;;;5038189;28;20040;-74
2021/03/07 05:29:10;;;;;;;6.05;4.55;;;-0.50;75.30;;;;;;5039092;28;20436;-74
2021/03/07 05:31:35;;;;;;;9.80;6.40;;;-0.50;75.20;;;;;;5039134;28;20026;-74
2021/03/07 05:34:02;;;;;;;8.93;5.60;;;-0.50;74.50;;;;;;5039029;28;20032;-73
2021/03/07 05:36:28;;;;;;;8.77;5.95;;;-0.50;74.40;;;;;;5039155;28;20037;-74
2021/03/07 05:38:54;;;;;;;10.57;6.18;;;-0.40;76.10;;;;;;5039035;28;20026;-74
2021/03/07 05:41:20;;;;;;;9.88;6.35;;;-0.30;77.20;;;;;;5039188;28;20025;-74
2021/03/07 05:43:47;;;;;;;8.65;6.80;;;-0.30;78.10;;;;;;5038893;28;20441;-74
2021/03/07 05:46:13;;;;;;;10.93;6.57;;;-0.20;79.00;;;;;;5039398;28;20022;-74
2021/03/07 05:48:39;;;;;;;22.77;8.32;;;-0.20;79.30;;;;;;5038730;28;20029;-74
2021/03/07 05:51:08;;;;;;;12.23;8.52;;;-0.10;78.90;;;;;;5038766;28;20080;-74
2021/03/07 05:53:34;;;;;;;15.18;9.07;;;0.00;80.90;;;;;;5038625;28;20034;-74
2021/03/07 05:56:01;;;;;;;14.45;8.30;;;0.20;81.60;;;;;;5039022;28;20024;-73
2021/03/07 05:58:27;;;;;;;9.10;6.57;;;0.30;82.00;;;;;;5037655;28;20298;-74
2021/03/07 06:00:53;;;;;;;8.68;6.50;;;0.40;80.80;;;;;;5038607;28;20026;-73
2021/03/07 06:03:22;;;;;;;8.20;5.50;;;0.40;76.00;;;;;;5038580;28;20022;-74
2021/03/07 06:05:51;;;;;;;10.23;5.85;;;0.40;71.90;;;;;;5038776;28;20033;-73
2021/03/07 06:08:18;;;;;;;12.93;7.07;;;0.40;71.60;;;;;;5038413;28;20021;-74
2021/03/07 06:10:43;;;;;;;11.65;6.00;;;0.40;70.90;;;;;;5038679;28;20014;-74
2021/03/07 06:13:10;;;;;;;7.68;5.18;;;0.30;69.10;;;;;;5038304;28;20032;-74
2021/03/07 06:15:44;;;;;;;8.15;3.85;;;0.30;65.40;;;;;;5037422;28;20402;-73
2021/03/07 06:18:17;;;;;;;6.18;3.92;;;0.40;66.50;;;;;;5037320;28;20033;-74
2021/03/07 06:20:45;;;;;;;13.27;7.40;;;0.40;64.20;;;;;;5037284;28;20052;-74
2021/03/07 06:23:11;;;;;;;11.98;7.38;;;0.50;66.20;;;;;;5038071;28;20322;-74
2021/03/07 06:25:45;;;;;;;10.32;3.95;;;0.60;68.60;;;;;;5038241;28;20071;-73
2021/03/07 06:28:24;;;;;;;7.28;4.10;;;0.70;66.00;;;;;;5037036;28;20107;-74
2021/03/07 06:30:51;;;;;;;7.10;3.78;;;0.80;64.60;;;;;;5038350;28;20034;-74
2021/03/07 06:33:34;;;;;;;6.28;3.45;;;0.80;63.70;;;;;;5038053;28;20037;-73
2021/03/07 06:36:20;;;;;;;6.45;3.35;;;0.90;60.60;;;;;;5038149;28;20317;-73
2021/03/07 06:38:49;;;;;;;8.07;3.53;;;1.00;60.60;;;;;;5037988;28;20034;-74
2021/03/07 06:41:17;;;;;;;5.40;3.72;;;1.10;60.80;;;;;;5037949;28;20029;-74
2021/03/07 06:43:43;;;;;;;6.03;3.72;;;1.10;60.30;;;;;;5037840;28;20026;-73
2021/03/07 06:46:32;;;;;;;5.78;3.58;;;1.10;60.60;;;;;;5038262;28;20390;-74
2021/03/07 06:48:59;;;;;;;6.50;3.67;;;1.20;63.80;;;;;;5037598;28;20051;-74
2021/03/07 06:51:33;;;;;;;6.10;3.83;;;1.20;60.60;;;;;;5037700;28;20375;-74
2021/03/07 06:54:12;;;;;;;7.65;4.05;;;1.30;62.80;;;;;;5037837;28;20037;-74
2021/03/07 06:56:59;;;;;;;6.70;4.50;;;1.40;62.50;;;;;;5037816;28;20321;-74
2021/03/07 06:59:25;;;;;;;6.65;4.13;;;1.60;61.50;;;;;;5037527;28;20029;-74
2021/03/07 07:01:51;;;;;;;5.13;3.05;;;1.60;60.20;;;;;;5037955;28;20029;-74
2021/03/07 07:04:19;;;;;;;8.82;3.60;;;1.70;59.80;;;;;;5037328;28;20197;-74
2021/03/07 07:07:06;;;;;;;6.18;3.90;;;1.80;59.20;;;;;;5037413;28;20100;-74
2021/03/07 07:09:35;;;;;;;6.78;4.72;;;2.00;61.90;;;;;;5037295;28;20028;-74
2021/03/07 07:12:03;;;;;;;5.53;3.55;;;2.10;60.10;;;;;;5037287;28;20049;-74
2021/03/07 07:14:32;;;;;;;7.80;4.28;;;2.20;61.20;;;;;;5037037;28;20033;-74
2021/03/07 07:16:58;;;;;;;6.05;3.60;;;2.30;60.00;;;;;;5037528;28;20057;-74
2021/03/07 07:19:25;;;;;;;6.88;3.72;;;2.30;59.70;;;;;;5035941;28;20105;-74
2021/03/07 07:21:51;;;;;;;7.15;3.67;;;2.30;59.30;;;;;;5036090;28;20329;-74
2021/03/07 07:24:17;;;;;;;5.90;3.83;;;2.30;59.50;;;;;;5036231;28;20025;-74
2021/03/07 07:26:46;;;;;;;5.45;3.63;;;2.30;60.10;;;;;;5037046;28;20036;-74
2021/03/07 07:29:12;;;;;;;5.82;3.80;;;2.50;61.90;;;;;;5036936;28;20095;-74
2021/03/07 07:31:44;;;;;;;6.55;3.63;;;2.60;61.40;;;;;;5037179;28;20356;-74
2021/03/07 07:34:14;;;;;;;6.47;3.30;;;2.70;60.60;;;;;;5036775;28;20028;-74
2021/03/07 07:36:47;;;;;;;4.15;3.40;;;2.90;59.80;;;;;;5037006;28;20063;-74
2021/03/07 07:39:16;;;;;;;6.93;4.25;;;2.90;59.60;;;;;;5037065;28;20029;-74
2021/03/07 07:41:42;;;;;;;5.30;3.42;;;2.90;59.50;;;;;;5037109;28;20108;-74
2021/03/07 07:44:12;;;;;;;6.43;4.25;;;3.00;60.10;;;;;;5036690;28;20119;-74
2021/03/07 07:47:13;;;;;;;6.90;4.10;;;3.00;58.90;;;;;;5037093;28;20072;-73
2021/03/07 07:49:51;;;;;;;5.93;4.20;;;3.10;61.70;;;;;;5035005;28;20417;-74
2021/03/07 07:52:26;;;;;;;6.07;4.25;;;3.20;62.50;;;;;;5036508;28;20037;-73
2021/03/07 07:54:58;;;;;;;6.60;3.78;;;3.30;57.30;;;;;;5036658;28;20032;-74
2021/03/07 07:57:37;;;;;;;5.93;4.65;;;3.20;59.30;;;;;;5036686;28;20014;-74
2021/03/07 08:00:06;;;;;;;7.65;4.50;;;3.40;59.40;;;;;;5037036;28;20029;-74
2021/03/07 08:02:50;;;;;;;7.20;4.55;;;3.50;58.50;;;;;;5036517;28;20017;-74
2021/03/07 08:05:24;;;;;;;6.10;4.45;;;3.50;59.60;;;;;;5036594;28;20021;-74
2021/03/07 08:07:55;;;;;;;7.68;4.80;;;3.50;59.10;;;;;;5036867;28;20021;-74
2021/03/07 08:10:36;;;;;;;6.88;4.10;;;3.40;59.40;;;;;;5036429;28;20030;-74
2021/03/07 08:13:29;;;;;;;7.28;4.28;;;3.50;60.60;;;;;;5036430;28;20022;-74
2021/03/07 08:15:58;;;;;;;7.07;4.97;;;3.50;58.90;;;;;;5035617;28;20065;-73
2021/03/07 08:19:02;;;;;;;6.95;5.03;;;3.60;60.80;;;;;;5036468;28;20021;-73
2021/03/07 08:21:28;;;;;;;7.82;4.65;;;3.70;58.80;;;;;;5036311;28;20405;-73
2021/03/07 08:24:04;;;;;;;7.25;5.15;;;4.00;59.10;;;;;;5035273;28;20112;-73
2021/03/07 08:26:44;;;;;;;6.90;5.35;;;4.70;58.30;;;;;;5036722;28;20025;-73
2021/03/07 08:29:48;;;;;;;6.63;4.88;;;5.50;55.10;;;;;;5036841;28;20017;-74
2021/03/07 08:32:30;;;;;;;6.10;4.50;;;6.30;56.00;;;;;;5035330;28;20025;-74
2021/03/07 08:34:59;;;;;;;6.65;4.70;;;7.50;51.90;;;;;;5036534;28;20033;-74
2021/03/07 08:37:25;;;;;;;5.90;4.60;;;8.40;49.90;;;;;;5036309;28;20029;-74
2021/03/07 08:40:26;;;;;;;7.70;4.93;;;9.00;48.30;;;;;;5036491;28;20107;-74
2021/03/07 08:42:53;;;;;;;6.90;5.13;;;9.50;47.90;;;;;;5037858;28;20372;-72
2021/03/07 08:45:20;;;;;;;7.35;4.68;;;10.30;46.60;;;;;;5039904;28;20029;-74
2021/03/07 08:47:59;;;;;;;5.40;4.18;;;10.60;44.80;;;;;;5040176;28;20036;-74
2021/03/07 08:50:27;;;;;;;7.20;5.13;;;10.90;45.70;;;;;;5040164;28;20058;-74
2021/03/07 08:52:54;;;;;;;8.25;5.20;;;11.60;45.20;;;;;;5039833;28;20025;-74
2021/03/07 08:55:19;;;;;;;6.93;4.65;;;11.80;43.50;;;;;;5039858;28;20021;-74
2021/03/07 08:57:50;;;;;;;7.00;5.18;;;11.50;43.30;;;;;;5039970;28;20021;-74
2021/03/07 09:00:19;;;;;;;8.70;4.57;;;11.40;45.80;;;;;;5040023;28;20021;-74
2021/03/07 09:02:46;;;;;;;6.65;4.88;;;11.70;43.80;;;;;;5039559;28;20425;-74
2021/03/07 09:05:31;;;;;;;6.82;4.95;;;11.90;43.90;;;;;;5038633;28;20065;-74
2021/03/07 09:08:03;;;;;;;7.82;5.28;;;12.40;43.50;;;;;;5039796;28;20025;-72
2021/03/07 09:10:32;;;;;;;6.03;5.05;;;12.30;42.90;;;;;;5039488;28;20028;-74
2021/03/07 09:13:07;;;;;;;6.68;4.75;;;12.10;42.20;;;;;;5039441;28;20021;-72
2021/03/07 09:15:34;;;;;;;6.55;5.47;;;12.30;43.30;;;;;;5039827;28;20037;-72
2021/03/07 09:17:59;;;;;;;6.63;4.90;;;12.20;43.10;;;;;;5038640;28;20321;-74
2021/03/07 09:20:46;;;;;;;9.27;5.40;;;12.30;42.40;;;;;;5039237;28;20041;-72
2021/03/07 09:23:35;;;;;;;6.32;5.60;;;12.20;43.30;;;;;;5039488;28;20408;-74
2021/03/07 09:26:06;;;;;;;7.20;4.90;;;12.40;43.60;;;;;;5039310;28;20017;-74
2021/03/07 09:28:33;;;;;;;7.60;5.18;;;12.40;44.00;;;;;;5039230;28;20321;-74
2021/03/07 09:31:01;;;;;;;6.70;5.20;;;12.90;43.50;;;;;;5039201;28;20022;-72
2021/03/07 09:33:28;;;;;;;6.40;5.53;;;12.70;43.10;;;;;;5039107;28;20025;-72
2021/03/07 09:36:03;;;;;;;8.70;5.57;;;12.80;44.60;;;;;;5039377;28;20076;-74
2021/03/07 09:38:39;;;;;;;7.55;5.95;;;13.20;45.50;;;;;;5039009;28;20045;-72
2021/03/07 09:41:05;;;;;;;6.40;5.50;;;13.30;45.00;;;;;;5039026;28;20017;-74
2021/03/07 09:43:32;;;;;;;6.68;5.43;;;13.30;42.70;;;;;;5038894;28;20024;-74
2021/03/07 09:45:59;;;;;;;6.05;5.07;;;13.30;42.50;;;;;;5039365;28;20060;-72
2021/03/07 09:48:36;;;;;;;6.90;5.47;;;13.00;45.10;;;;;;5038856;28;20030;-72
2021/03/07 09:51:09;;;;;;;6.93;5.38;;;13.10;43.40;;;;;;5039075;28;20413;-74
2021/03/07 09:53:37;;;;;;;6.88;5.32;;;13.10;43.50;;;;;;5038138;28;20030;-74
2021/03/07 09:56:03;;;;;;;7.22;6.03;;;13.00;42.90;;;;;;5038611;28;20024;-73
2021/03/07 09:58:38;;;;;;;9.43;5.50;;;13.00;43.20;;;;;;5038746;28;20030;-74
2021/03/07 10:01:06;;;;;;;6.72;5.18;;;13.40;42.70;;;;;;5038786;28;20026;-73
2021/03/07 10:03:34;;;;;;;10.30;5.68;;;13.70;43.00;;;;;;5038534;28;20021;-73
2021/03/07 10:06:08;;;;;;;5.93;5.25;;;13.70;42.70;;;;;;5038811;28;20417;-72
2021/03/07 10:08:35;;;;;;;6.60;5.53;;;13.80;42.30;;;;;;5038415;28;20025;-72
2021/03/07 10:11:16;;;;;;;6.28;5.40;;;13.80;43.20;;;;;;5037872;28;20025;-74
2021/03/07 10:13:43;;;;;;;6.70;5.28;;;13.60;41.80;;;;;;5040256;28;20125;-72
2021/03/07 10:16:10;;;;;;;6.72;5.22;;;13.60;42.40;;;;;;5057730;28;20025;-73
2021/03/07 10:18:36;;;;;;;8.75;5.25;;;13.30;41.50;;;;;;5057152;28;20091;-72
2021/03/07 10:21:04;;;;;;;6.70;5.10;;;13.50;44.50;;;;;;5058027;28;20045;-72
2021/03/07 10:23:34;;;;;;;6.70;5.57;;;13.80;42.30;;;;;;5058032;28;20313;-72
2021/03/07 10:26:00;;;;;;;7.32;5.47;;;14.00;40.90;;;;;;5058417;28;20021;-72
2021/03/07 10:28:31;;;;;;;5.50;4.93;;;14.40;41.60;;;;;;5058167;28;20025;-72
2021/03/07 10:31:11;;;;;;;9.32;6.55;;;14.30;39.30;;;;;;5058136;28;20048;-72
2021/03/07 10:33:38;;;;;;;7.60;5.90;;;14.00;41.90;;;;;;5058136;28;20025;-72
2021/03/07 10:36:04;;;;;;;7.38;5.90;;;14.00;42.80;;;;;;5058200;28;20025;-74
2021/03/07 10:38:32;;;;;;;6.90;5.22;;;13.20;40.90;;;;;;5057910;28;20377;-72
2021/03/07 10:40:59;;;;;;;6.15;5.55;;;13.30;40.90;;;;;;5057997;28;20045;-73
2021/03/07 10:43:25;;;;;;;7.32;5.60;;;13.20;41.70;;;;;;5057693;28;20359;-72
2021/03/07 10:45:51;;;;;;;6.88;5.35;;;13.80;42.00;;;;;;5056820;28;20028;-72
2021/03/07 10:48:17;;;;;;;6.55;5.00;;;14.00;41.40;;;;;;5056625;28;20075;-72
2021/03/07 10:50:44;;;;;;;5.93;5.28;;;13.90;41.20;;;;;;5057825;28;20104;-72
2021/03/07 10:53:11;;;;;;;6.53;5.78;;;14.20;42.20;;;;;;5057455;28;20036;-72
2021/03/07 10:55:37;;;;;;;8.98;6.47;;;14.50;40.60;;;;;;5057562;28;20021;-74
2021/03/07 10:58:04;;;;;;;7.45;5.65;;;14.30;38.90;;;;;;5057432;28;20459;-72
2021/03/07 11:00:30;;;;;;;7.60;6.10;;;14.40;40.10;;;;;;5057415;28;20028;-72
2021/03/07 11:02:56;;;;;;;6.93;5.80;;;14.30;41.90;;;;;;5057324;28;20409;-72
2021/03/07 11:05:22;;;;;;;6.53;5.70;;;14.40;39.30;;;;;;5055977;28;20490;-72
2021/03/07 11:07:48;;;;;;;6.85;5.78;;;14.70;39.70;;;;;;5057646;28;20345;-71
2021/03/07 11:10:17;;;;;;;7.80;6.57;;;14.70;40.40;;;;;;5057474;28;20056;-73
2021/03/07 11:12:43;;;;;;;8.10;6.40;;;14.70;40.10;;;;;;5057273;28;20017;-74
2021/03/07 11:15:10;;;;;;;11.07;5.78;;;14.40;41.20;;;;;;5057346;28;20365;-73
2021/03/07 11:17:37;;;;;;;7.57;6.05;;;14.50;41.20;;;;;;5057299;28;20028;-73
2021/03/07 11:20:04;;;;;;;6.93;5.90;;;14.80;41.80;;;;;;5056936;28;20052;-72
2021/03/07 11:22:30;;;;;;;7.15;5.93;;;14.60;41.10;;;;;;5057047;28;20096;-73
2021/03/07 11:24:56;;;;;;;7.00;6.00;;;14.50;42.10;;;;;;5056935;28;20105;-72
2021/03/07 11:27:21;;;;;;;7.55;6.20;;;14.70;43.30;;;;;;5057210;28;20029;-72
2021/03/07 11:29:47;;;;;;;7.20;6.15;;;14.60;42.50;;;;;;5057135;28;20025;-72
2021/03/07 11:32:13;;;;;;;7.97;6.63;;;14.50;40.70;;;;;;5056907;28;20017;-74
2021/03/07 11:34:39;;;;;;;9.20;6.50;;;14.10;41.00;;;;;;5056823;28;20327;-71
2021/03/07 11:37:04;;;;;;;7.80;6.55;;;14.10;41.50;;;;;;5056894;28;20317;-74
2021/03/07 11:39:30;;;;;;;8.45;6.95;;;14.10;42.70;;;;;;5057072;28;20029;-74
2021/03/07 11:41:57;;;;;;;6.95;6.25;;;14.00;41.00;;;;;;5056982;28;20108;-73
2021/03/07 11:44:24;;;;;;;8.52;7.10;;;14.00;41.20;;;;;;5056871;28;20082;-74
2021/03/07 11:46:52;;;;;;;8.85;6.35;;;13.80;41.10;;;;;;5056714;28;20033;-74
2021/03/07 11:49:21;;;;;;;8.45;6.63;;;13.90;41.60;;;;;;5056694;28;20129;-74
2021/03/07 11:51:47;;;;;;;7.90;6.68;;;13.90;44.20;;;;;;5056888;28;20017;-74
2021/03/07 11:54:13;;;;;;;8.57;6.68;;;13.90;44.60;;;;;;5056813;28;20020;-74
2021/03/07 11:56:39;;;;;;;8.05;6.85;;;14.00;42.70;;;;;;5057133;28;20445;-72
2021/03/07 11:59:04;;;;;;;7.65;6.82;;;13.70;43.90;;;;;;5055536;28;20035;-74
2021/03/07 12:01:30;;;;;;;7.60;6.80;;;13.50;43.70;;;;;;5056529;28;20017;-72
2021/03/07 12:03:58;;;;;;;8.07;6.57;;;13.30;44.30;;;;;;5056430;28;20033;-72
2021/03/07 12:06:24;;;;;;;8.85;6.93;;;13.30;44.90;;;;;;5055539;28;20028;-72
2021/03/07 12:08:50;;;;;;;8.57;6.53;;;13.60;46.30;;;;;;5056431;28;20025;-72
2021/03/07 12:11:16;;;;;;;9.15;7.72;;;13.80;44.10;;;;;;5056445;28;20090;-72
2021/03/07 12:13:43;;;;;;;8.95;7.43;;;13.70;41.90;;;;;;5056372;28;20417;-74
2021/03/07 12:16:09;;;;;;;7.43;6.45;;;13.20;44.20;;;;;;5056911;28;20427;-72
2021/03/07 12:18:37;;;;;;;11.98;7.57;;;13.20;44.80;;;;;;5059164;28;20061;-72
2021/03/07 12:21:03;;;;;;;8.90;7.93;;;12.90;45.70;;;;;;5059264;28;20041;-72
2021/03/07 12:23:29;;;;;;;9.65;7.20;;;12.60;46.50;;;;;;5060445;28;20060;-74
2021/03/07 12:25:55;;;;;;;8.25;7.43;;;12.50;46.70;;;;;;5060698;28;20060;-74
2021/03/07 12:28:20;;;;;;;9.50;7.78;;;12.40;46.20;;;;;;5060311;28;20029;-73
2021/03/07 12:30:46;;;;;;;8.20;7.32;;;12.50;46.80;;;;;;5060221;28;20083;-73
2021/03/07 12:33:13;;;;;;;10.70;8.00;;;12.60;47.20;;;;;;5060163;28;20321;-74
2021/03/07 12:35:38;;;;;;;8.48;7.03;;;12.60;47.40;;;;;;5059156;28;20021;-72
2021/03/07 12:38:04;;;;;;;10.02;7.95;;;12.40;45.10;;;;;;5060293;28;20028;-72
2021/03/07 12:40:30;;;;;;;10.35;7.75;;;12.30;48.30;;;;;;5060093;28;20033;-74
2021/03/07 12:42:56;;;;;;;10.15;7.97;;;11.90;45.70;;;;;;5060003;28;20029;-74
2021/03/07 12:45:22;;;;;;;9.82;8.38;;;11.70;51.60;;;;;;5060277;28;20032;-72
2021/03/07 12:47:47;;;;;;;9.82;7.88;;;11.70;50.40;;;;;;5059974;28;20118;-74
2021/03/07 12:50:13;;;;;;;9.32;7.25;;;11.40;49.30;;;;;;5059892;28;20071;-74
2021/03/07 12:52:39;;;;;;;10.05;7.90;;;11.10;50.10;;;;;;5059789;28;20021;-74
2021/03/07 12:55:05;;;;;;;8.30;7.40;;;10.80;50.90;;;;;;5059814;28;20376;-74
2021/03/07 12:57:31;;;;;;;10.68;7.95;;;10.70;51.50;;;;;;5059953;28;20028;-74
2021/03/07 12:59:57;;;;;;;8.38;7.50;;;10.60;49.80;;;;;;5059967;28;20401;-74